createdAt,value
2018-01-08T00:01:43.915Z,14.53
2018-01-08T00:04:11.449Z,15.07
2018-01-08T00:06:39.005Z,15.27
2018-01-08T00:09:06.543Z,13.83
2018-01-08T00:11:34.871Z,14.93
2018-01-08T00:14:02.408Z,15.70
2018-01-08T00:16:30.318Z,12.90
2018-01-08T00:18:57.858Z,13.13
2018-01-08T00:21:25.423Z,13.73
2018-01-08T00:23:52.973Z,15.57
2018-01-08T00:26:20.581Z,16.00
2018-01-08T00:28:48.175Z,14.43
2018-01-08T00:31:15.735Z,15.20
2018-01-08T00:33:43.268Z,15.50
2018-01-08T00:36:11.644Z,13.47
2018-01-08T00:38:39.338Z,16.10
2018-01-08T00:41:06.898Z,15.80
2018-01-08T00:43:34.424Z,13.80
2018-01-08T00:46:02.111Z,17.87
2018-01-08T00:48:29.657Z,12.43
2018-01-08T00:50:57.978Z,13.67
2018-01-08T00:53:25.574Z,12.77
2018-01-08T00:55:53.133Z,14.20
2018-01-08T00:58:20.667Z,18.70
2018-01-08T01:00:48.989Z,12.93
2018-01-08T01:03:17.286Z,15.00
2018-01-08T01:05:44.870Z,12.93
2018-01-08T01:08:12.470Z,13.50
2018-01-08T01:10:40.026Z,14.03
2018-01-08T01:13:07.565Z,15.90
2018-01-08T01:15:35.115Z,16.67
2018-01-08T01:18:02.649Z,16.80
2018-01-08T01:20:30.330Z,16.87
2018-01-08T01:22:57.863Z,18.27
2018-01-08T01:25:25.425Z,16.50
2018-01-08T01:27:52.963Z,16.73
2018-01-08T01:30:21.293Z,17.67
2018-01-08T01:32:48.826Z,16.60
2018-01-08T01:35:16.401Z,14.30
2018-01-08T01:37:44.212Z,20.00
2018-01-08T01:40:11.753Z,14.67
2018-01-08T01:42:39.306Z,17.53
2018-01-08T01:45:06.830Z,14.93
2018-01-08T01:47:34.386Z,16.40
2018-01-08T01:50:01.921Z,17.43
2018-01-08T01:52:29.484Z,16.47
2018-01-08T01:54:57.785Z,17.53
2018-01-08T01:57:25.342Z,15.33
2018-01-08T01:59:52.869Z,13.93
2018-01-08T02:02:20.435Z,16.67
2018-01-08T02:04:47.962Z,17.80
2018-01-08T02:07:15.521Z,15.10
2018-01-08T02:09:43.046Z,15.07
2018-01-08T02:12:10.607Z,14.37
2018-01-08T02:14:38.138Z,15.50
2018-01-08T02:17:06.478Z,19.27
2018-01-08T02:19:34.011Z,20.03
2018-01-08T02:22:01.587Z,17.13
2018-01-08T02:24:29.123Z,18.50
2018-01-08T02:26:56.678Z,19.07
2018-01-08T02:29:24.209Z,16.17
2018-01-08T02:31:51.774Z,17.70
2018-01-08T02:34:20.079Z,16.87
2018-01-08T02:36:47.640Z,16.97
2018-01-08T02:39:15.171Z,15.73
2018-01-08T02:41:43.496Z,15.63
2018-01-08T02:44:11.029Z,19.87
2018-01-08T02:46:38.577Z,15.80
2018-01-08T02:49:06.878Z,18.10
2018-01-08T02:51:34.430Z,19.20
2018-01-08T02:54:01.969Z,17.03
2018-01-08T02:56:30.293Z,15.50
2018-01-08T02:58:57.826Z,15.03
2018-01-08T03:01:25.377Z,21.97
2018-01-08T03:03:53.887Z,19.33
2018-01-08T03:06:21.436Z,15.47
2018-01-08T03:08:48.975Z,16.73
2018-01-08T03:11:17.297Z,17.43
2018-01-08T03:13:44.834Z,16.70
2018-01-08T03:16:12.386Z,16.10
2018-01-08T03:18:39.909Z,18.50
2018-01-08T03:21:07.462Z,19.03
2018-01-08T03:23:35.007Z,18.80
2018-01-08T03:26:02.554Z,19.90
2018-01-08T03:28:30.090Z,18.70
2018-01-08T03:30:57.639Z,21.53
2018-01-08T03:33:25.169Z,16.63
2018-01-08T03:35:52.734Z,19.00
2018-01-08T03:38:21.034Z,22.60
2018-01-08T03:40:48.600Z,22.70
2018-01-08T03:43:16.130Z,20.63
2018-01-08T03:45:43.662Z,18.03
2018-01-08T03:48:11.220Z,19.73
2018-01-08T03:50:38.750Z,18.50
2018-01-08T03:53:06.302Z,19.87
2018-01-08T03:55:33.834Z,18.23
2018-01-08T03:58:02.165Z,18.93
2018-01-08T04:00:29.698Z,19.53
2018-01-08T04:02:57.267Z,21.87
2018-01-08T04:05:24.832Z,19.07
2018-01-08T04:07:52.379Z,19.80
2018-01-08T04:10:19.911Z,18.90
2018-01-08T04:12:48.243Z,20.13
2018-01-08T04:15:15.762Z,16.90
2018-01-08T04:17:43.325Z,18.47
2018-01-08T04:20:10.861Z,21.90
2018-01-08T04:22:39.187Z,18.40
2018-01-08T04:25:06.717Z,21.10
2018-01-08T04:27:35.038Z,20.40
2018-01-08T04:30:02.570Z,22.53
2018-01-08T04:32:30.160Z,20.00
2018-01-08T04:34:57.690Z,23.40
2018-01-08T04:37:25.238Z,18.80
2018-01-08T04:39:52.778Z,22.67
2018-01-08T04:42:21.104Z,23.13
2018-01-08T04:44:48.631Z,22.67
2018-01-08T04:47:16.950Z,23.03
2018-01-08T04:49:44.496Z,21.43
2018-01-08T04:52:12.051Z,23.77
2018-01-08T04:54:39.589Z,20.17
2018-01-08T04:57:07.154Z,21.60
2018-01-08T04:59:34.687Z,23.73
2018-01-08T05:02:03.018Z,23.50
2018-01-08T05:04:30.550Z,25.53
2018-01-08T05:06:58.106Z,19.63
2018-01-08T05:09:25.638Z,22.93
2018-01-08T05:11:53.202Z,25.50
2018-01-08T05:14:20.730Z,17.67
2018-01-08T05:16:48.281Z,19.57
2018-01-08T05:19:15.810Z,23.20
2018-01-08T05:21:43.338Z,21.43
2018-01-08T05:24:10.897Z,22.67
2018-01-08T05:26:38.439Z,21.30
2018-01-08T05:29:05.996Z,23.70
2018-01-08T05:31:33.538Z,20.47
2018-01-08T05:34:01.099Z,23.87
2018-01-08T05:36:28.633Z,21.83
2018-01-08T05:38:56.235Z,21.67
2018-01-08T05:41:23.766Z,21.97
2018-01-08T05:43:51.330Z,26.60
2018-01-08T05:46:18.850Z,22.50
2018-01-08T05:48:47.179Z,22.53
2018-01-08T05:51:14.710Z,21.63
2018-01-08T05:53:42.257Z,27.13
2018-01-08T05:56:09.844Z,24.90
2018-01-08T05:58:37.410Z,24.60
2018-01-08T06:01:04.961Z,24.73
2018-01-08T06:03:32.515Z,23.60
2018-01-08T06:06:00.054Z,23.20
2018-01-08T06:08:27.621Z,30.87
2018-01-08T06:10:55.158Z,22.60
2018-01-08T06:13:23.476Z,25.93
2018-01-08T06:15:51.017Z,20.13
2018-01-08T06:18:18.548Z,25.20
2018-01-08T06:20:46.882Z,23.27
2018-01-08T06:23:14.419Z,24.80
2018-01-08T06:25:41.971Z,31.03
2018-01-08T06:28:09.504Z,28.53
2018-01-08T06:51:36.374Z,25.20
2018-01-08T06:54:03.921Z,26.60
2018-01-08T06:56:31.474Z,26.30
2018-01-08T06:58:59.002Z,24.93
2018-01-08T07:01:26.574Z,24.70
2018-01-08T07:03:54.451Z,25.70
2018-01-08T07:06:22.007Z,25.23
2018-01-08T07:08:49.552Z,26.53
2018-01-08T07:11:17.114Z,29.50
2018-01-08T07:13:44.654Z,26.93
2018-01-08T07:16:12.975Z,28.57
2018-01-08T07:18:40.506Z,27.53
2018-01-08T07:21:08.071Z,23.07
2018-01-08T07:23:35.606Z,29.17
2018-01-08T07:26:03.934Z,25.13
2018-01-08T07:28:31.470Z,26.73
2018-01-08T07:30:59.049Z,26.67
2018-01-08T07:33:26.601Z,21.53
2018-01-08T07:35:54.173Z,27.67
2018-01-08T07:38:21.702Z,27.33
2018-01-08T07:40:49.259Z,24.47
2018-01-08T07:43:16.786Z,31.50
2018-01-08T07:45:44.341Z,26.60
2018-01-08T07:48:11.874Z,24.67
2018-01-08T07:50:39.427Z,36.47
2018-01-08T07:53:06.990Z,26.90
2018-01-08T07:55:34.514Z,28.57
2018-01-08T07:58:02.067Z,23.07
2018-01-08T08:00:30.421Z,30.27
2018-01-08T08:02:58.034Z,25.17
2018-01-08T08:05:25.569Z,24.83
2018-01-08T08:07:53.118Z,23.50
2018-01-08T08:10:21.412Z,27.60
2018-01-08T08:12:48.962Z,24.53
2018-01-08T08:15:17.250Z,26.27
2018-01-08T08:17:44.806Z,25.33
2018-01-08T08:20:12.334Z,25.80
2018-01-08T08:22:39.894Z,27.23
2018-01-08T08:25:07.418Z,26.83
2018-01-08T08:27:34.999Z,29.27
2018-01-08T08:30:02.538Z,28.53
2018-01-08T08:32:30.105Z,27.60
2018-01-08T08:34:57.633Z,30.13
2018-01-08T08:37:25.183Z,27.20
2018-01-08T08:39:52.714Z,28.67
2018-01-08T08:42:20.279Z,27.53
2018-01-08T08:44:48.574Z,29.00
2018-01-08T08:47:16.890Z,24.57
2018-01-08T08:49:44.426Z,33.70
2018-01-08T08:52:15.697Z,28.73
2018-01-08T08:54:43.235Z,26.90
2018-01-08T08:57:10.785Z,22.67
2018-01-08T08:59:38.315Z,23.03
2018-01-08T09:02:05.865Z,24.10
2018-01-08T09:04:33.390Z,24.10
2018-01-08T09:07:00.923Z,32.37
2018-01-08T09:09:28.477Z,27.37
2018-01-08T09:11:56.010Z,32.30
2018-01-08T09:14:23.570Z,26.87
2018-01-08T09:16:51.094Z,26.30
2018-01-08T09:19:18.642Z,26.67
2018-01-08T09:21:46.170Z,25.53
2018-01-08T09:24:14.482Z,28.23
2018-01-08T09:26:42.010Z,28.93
2018-01-08T09:29:09.567Z,23.67
2018-01-08T09:31:37.850Z,24.30
2018-01-08T09:34:05.404Z,34.20
2018-01-08T09:36:33.702Z,28.33
2018-01-08T09:39:01.250Z,24.50
2018-01-08T09:41:28.779Z,22.93
2018-01-08T09:43:56.339Z,26.43
2018-01-08T09:46:23.870Z,23.37
2018-01-08T09:48:51.420Z,27.57
2018-01-08T09:51:18.960Z,26.07
2018-01-08T09:53:46.509Z,24.37
2018-01-08T09:56:14.046Z,30.10
2018-01-08T09:58:42.373Z,30.87
2018-01-08T10:01:09.905Z,27.57
2018-01-08T10:03:49.378Z,28.80
2018-01-08T10:06:28.738Z,22.13
2018-01-08T10:09:08.099Z,23.57
2018-01-08T10:11:48.217Z,20.43
2018-01-08T10:14:27.811Z,25.60
2018-01-08T10:17:07.198Z,28.50
2018-01-08T10:19:44.664Z,25.97
2018-01-08T10:22:12.202Z,22.00
2018-01-08T10:24:39.750Z,24.83
2018-01-08T10:27:07.279Z,22.70
2018-01-08T10:29:34.837Z,25.77
2018-01-08T10:32:02.366Z,23.97
2018-01-08T10:34:29.918Z,29.03
2018-01-08T10:36:57.449Z,28.90
2018-01-08T10:39:25.018Z,25.20
2018-01-08T10:41:58.334Z,31.83
2018-01-08T10:44:31.510Z,22.03
2018-01-08T10:47:04.675Z,19.13
2018-01-08T10:49:38.636Z,25.13
2018-01-08T10:52:05.671Z,22.90
2018-01-08T10:54:33.227Z,23.03
2018-01-08T10:57:00.759Z,25.77
2018-01-08T10:59:29.086Z,25.20
2018-01-08T11:02:02.351Z,26.20
2018-01-08T11:04:29.917Z,26.30
2018-01-08T11:06:57.446Z,22.70
2018-01-08T11:09:25.794Z,25.43
2018-01-08T11:11:53.322Z,24.03
2018-01-08T11:14:20.888Z,31.20
2018-01-08T11:16:48.428Z,23.57
2018-01-08T11:19:15.962Z,22.43
2018-01-08T11:21:44.278Z,27.00
2018-01-08T11:24:11.810Z,20.57
2018-01-08T11:26:39.358Z,19.10
2018-01-08T11:29:07.654Z,25.93
2018-01-08T11:31:35.207Z,25.63
2018-01-08T11:34:02.734Z,23.30
2018-01-08T11:36:30.293Z,21.23
2018-01-08T11:38:57.827Z,25.40
2018-01-08T11:41:25.382Z,21.70
2018-01-08T11:43:53.685Z,19.37
2018-01-08T11:46:21.238Z,19.10
2018-01-08T11:48:48.769Z,25.40
2018-01-08T11:51:16.314Z,22.70
2018-01-08T11:53:43.838Z,20.00
2018-01-08T11:56:11.394Z,21.27
2018-01-08T11:58:39.719Z,28.23
2018-01-08T12:01:10.943Z,26.40
2018-01-08T12:03:38.474Z,20.83
2018-01-08T12:06:06.037Z,22.87
2018-01-08T12:08:33.562Z,22.30
2018-01-08T12:11:01.123Z,22.43
2018-01-08T12:13:28.653Z,25.17
2018-01-08T12:15:56.205Z,23.00
2018-01-08T12:18:23.738Z,22.60
2018-01-08T12:20:51.294Z,23.80
2018-01-08T12:23:18.822Z,23.60
2018-01-08T12:25:47.146Z,20.50
2018-01-08T12:28:14.689Z,20.13
2018-01-08T12:30:42.250Z,22.03
2018-01-08T12:33:09.829Z,23.27
2018-01-08T12:35:37.375Z,20.97
2018-01-08T12:38:04.910Z,20.97
2018-01-08T12:40:32.458Z,18.47
2018-01-08T12:42:59.991Z,21.37
2018-01-08T12:45:27.549Z,20.90
2018-01-08T12:47:55.078Z,27.27
2018-01-08T12:50:23.407Z,23.17
2018-01-08T12:52:50.936Z,21.70
2018-01-08T12:55:18.495Z,22.80
2018-01-08T12:57:46.027Z,18.83
2018-01-08T13:00:13.559Z,22.13
2018-01-08T13:02:41.115Z,27.63
2018-01-08T13:05:08.655Z,21.30
2018-01-08T13:07:36.219Z,17.93
2018-01-08T13:10:03.762Z,21.70
2018-01-08T13:12:31.322Z,21.13
2018-01-08T13:14:58.847Z,25.30
2018-01-08T13:17:26.401Z,22.53
2018-01-08T13:19:53.927Z,18.00
2018-01-08T13:22:21.486Z,19.90
2018-01-08T13:24:49.778Z,23.27
2018-01-08T13:27:17.330Z,20.50
2018-01-08T13:29:44.866Z,23.20
2018-01-08T13:32:12.414Z,22.30
2018-01-08T13:34:39.945Z,21.30
2018-01-08T13:37:08.272Z,20.17
2018-01-08T13:39:35.815Z,23.50
2018-01-08T13:42:03.357Z,22.13
2018-01-08T13:44:30.887Z,20.10
2018-01-08T13:46:58.452Z,20.90
2018-01-08T13:49:25.990Z,21.53
2018-01-08T13:51:53.546Z,22.17
2018-01-08T13:54:21.081Z,20.17
2018-01-08T13:56:48.637Z,20.00
2018-01-08T13:59:16.176Z,20.70
2018-01-08T14:01:43.734Z,22.03
2018-01-08T14:04:11.269Z,19.10
2018-01-08T14:06:38.830Z,21.73
2018-01-08T14:09:06.358Z,17.23
2018-01-08T14:11:33.905Z,22.67
2018-01-08T14:14:01.429Z,16.93
2018-01-08T14:16:29.754Z,19.97
2018-01-08T14:18:57.281Z,17.53
2018-01-08T14:21:24.835Z,21.67
2018-01-08T14:23:52.373Z,18.93
2018-01-08T14:26:20.690Z,17.87
2018-01-08T14:28:48.221Z,20.70
2018-01-08T14:31:16.542Z,20.53
2018-01-08T14:33:44.066Z,22.53
2018-01-08T14:36:11.621Z,21.30
2018-01-08T14:38:39.154Z,20.70
2018-01-08T14:41:06.714Z,19.60
2018-01-08T14:43:34.254Z,18.73
2018-01-08T14:46:01.810Z,24.43
2018-01-08T14:48:29.350Z,21.97
2018-01-08T14:50:56.909Z,21.47
2018-01-08T14:53:24.442Z,20.43
2018-01-08T14:55:52.008Z,21.47
2018-01-08T14:58:19.530Z,21.70
2018-01-08T15:00:47.086Z,21.70
2018-01-08T15:03:14.617Z,21.60
2018-01-08T15:05:42.146Z,26.00
2018-01-08T15:08:09.702Z,21.40
2018-01-08T15:10:37.229Z,20.63
2018-01-08T15:13:04.790Z,18.50
2018-01-08T15:15:32.322Z,21.10
2018-01-08T15:17:59.878Z,18.97
2018-01-08T15:20:27.418Z,21.17
2018-01-08T15:22:54.999Z,19.53
2018-01-08T15:25:22.527Z,20.43
2018-01-08T15:27:50.083Z,21.40
2018-01-08T15:30:17.863Z,23.73
2018-01-08T15:32:45.423Z,21.10
2018-01-08T15:35:12.960Z,18.87
2018-01-08T15:37:40.514Z,22.33
2018-01-08T15:40:08.051Z,22.43
2018-01-08T15:42:36.379Z,24.50
2018-01-08T15:45:03.918Z,21.50
2018-01-08T15:47:31.475Z,20.50
2018-01-08T15:49:59.011Z,22.80
2018-01-08T15:52:26.568Z,20.83
2018-01-08T15:54:54.098Z,23.40
2018-01-08T15:57:21.665Z,21.03
2018-01-08T15:59:49.192Z,18.23
2018-01-08T16:02:16.741Z,20.63
2018-01-08T16:04:44.262Z,23.70
2018-01-08T16:07:11.827Z,21.17
2018-01-08T16:09:39.355Z,21.10
2018-01-08T16:12:06.913Z,20.87
2018-01-08T16:14:34.450Z,23.47
2018-01-08T16:17:02.002Z,22.93
2018-01-08T16:19:29.694Z,20.57
2018-01-08T16:21:57.261Z,27.93
2018-01-08T16:24:24.814Z,21.53
2018-01-08T16:26:52.376Z,18.53
2018-01-08T16:29:19.910Z,24.23
2018-01-08T16:31:47.625Z,19.80
2018-01-08T16:34:15.242Z,23.23
2018-01-08T16:36:42.786Z,22.03
2018-01-08T16:39:10.314Z,22.50
2018-01-08T16:41:38.643Z,22.87
2018-01-08T16:44:06.171Z,22.50
2018-01-08T16:46:33.734Z,18.23
2018-01-08T16:49:01.268Z,20.93
2018-01-08T16:51:28.826Z,20.93
2018-01-08T16:53:56.401Z,19.67
2018-01-08T16:56:23.926Z,21.00
2018-01-08T16:58:59.655Z,21.57
2018-01-08T17:01:27.208Z,20.40
2018-01-08T17:03:55.666Z,21.50
2018-01-08T17:06:23.222Z,22.53
2018-01-08T17:08:50.776Z,18.67
2018-01-08T17:11:18.397Z,22.50
2018-01-08T17:13:45.928Z,26.70
2018-01-08T17:16:13.462Z,25.90
2018-01-08T17:18:41.788Z,20.10
2018-01-08T17:21:09.319Z,22.13
2018-01-08T17:23:36.866Z,23.70
2018-01-08T17:26:04.401Z,22.90
2018-01-08T17:28:32.740Z,21.07
2018-01-08T17:31:00.276Z,19.83
2018-01-08T17:33:27.831Z,26.20
2018-01-08T17:35:55.366Z,23.47
2018-01-08T17:38:23.685Z,21.60
2018-01-08T17:40:51.214Z,18.30
2018-01-08T17:43:18.768Z,21.00
2018-01-08T17:45:47.062Z,23.67
2018-01-08T17:48:14.615Z,17.80
2018-01-08T17:50:42.145Z,21.47
2018-01-08T17:53:10.467Z,22.70
2018-01-08T17:55:37.994Z,24.43
2018-01-08T17:58:06.310Z,22.67
2018-01-08T18:00:33.833Z,20.33
2018-01-08T18:03:02.150Z,23.60
2018-01-08T18:05:29.686Z,21.83
2018-01-08T18:07:57.210Z,21.23
2018-01-08T18:10:24.770Z,20.60
2018-01-08T18:12:52.295Z,20.10
2018-01-08T18:15:19.902Z,21.33
2018-01-08T18:17:48.198Z,19.20
2018-01-08T18:20:15.753Z,22.03
2018-01-08T18:22:44.046Z,23.70
2018-01-08T18:25:11.602Z,21.50
2018-01-08T18:27:39.135Z,26.07
2018-01-08T18:30:07.458Z,21.97
2018-01-08T18:32:34.991Z,20.37
2018-01-08T18:35:02.546Z,20.30
2018-01-08T18:37:30.850Z,18.77
2018-01-08T18:39:58.409Z,22.70
2018-01-08T18:42:25.942Z,20.20
2018-01-08T18:44:54.264Z,22.43
2018-01-08T18:47:21.858Z,21.30
2018-01-08T18:49:49.406Z,21.37
2018-01-08T18:52:16.935Z,23.03
2018-01-08T18:54:44.494Z,23.23
2018-01-08T18:57:12.019Z,18.40
2018-01-08T18:59:39.579Z,22.77
2018-01-08T19:02:07.115Z,24.07
2018-01-08T19:04:34.692Z,18.73
2018-01-08T19:07:02.987Z,21.17
2018-01-08T19:09:30.514Z,22.63
2018-01-08T19:11:58.080Z,19.10
2018-01-08T19:14:26.383Z,20.50
2018-01-08T19:16:53.942Z,20.80
2018-01-08T19:19:21.469Z,21.33
2018-01-08T19:21:49.026Z,19.07
2018-01-08T19:24:16.555Z,21.80
2018-01-08T19:26:44.106Z,21.80
2018-01-08T19:29:11.776Z,18.87
2018-01-08T19:31:39.330Z,21.60
2018-01-08T19:34:06.862Z,17.97
2018-01-08T19:36:34.421Z,19.67
2018-01-08T19:39:01.960Z,21.60
2018-01-08T19:41:30.287Z,18.20
2018-01-08T19:43:57.814Z,24.13
2018-01-08T19:46:25.374Z,19.70
2018-01-08T19:48:52.907Z,24.23
2018-01-08T19:51:21.230Z,16.97
2018-01-08T19:53:48.754Z,21.80
2018-01-08T19:56:17.079Z,17.73
2018-01-08T19:58:44.611Z,19.67
2018-01-08T20:01:12.370Z,20.43
2018-01-08T20:03:40.660Z,20.33
2018-01-08T20:06:08.210Z,24.87
2018-01-08T20:08:35.762Z,21.80
2018-01-08T20:11:04.082Z,21.63
2018-01-08T20:13:31.614Z,23.83
2018-01-08T20:15:59.142Z,16.93
2018-01-08T20:18:27.495Z,18.63
2018-01-08T20:20:55.051Z,21.60
2018-01-08T20:23:23.365Z,19.30
2018-01-08T20:25:51.654Z,20.57
2018-01-08T20:28:19.217Z,20.60
2018-01-08T20:30:46.753Z,21.80
2018-01-08T20:33:15.082Z,16.90
2018-01-08T20:35:42.615Z,22.40
2018-01-08T20:38:10.170Z,15.13
2018-01-08T20:40:37.705Z,22.77
2018-01-08T20:43:05.266Z,23.00
2018-01-08T20:45:34.148Z,17.57
2018-01-08T20:48:01.749Z,17.77
2018-01-08T20:50:29.312Z,18.20
2018-01-08T20:52:56.898Z,19.60
2018-01-08T20:55:24.907Z,22.07
2018-01-08T20:57:52.478Z,21.47
2018-01-08T21:00:20.775Z,22.97
2018-01-08T21:02:48.337Z,21.13
2018-01-08T21:05:15.879Z,20.40
2018-01-08T21:07:44.207Z,21.47
2018-01-08T21:10:11.756Z,22.67
2018-01-08T21:12:39.315Z,19.63
2018-01-08T21:15:06.835Z,19.90
2018-01-08T21:17:35.154Z,20.50
2018-01-08T21:20:02.703Z,21.10
2018-01-08T21:22:30.272Z,21.70
2018-01-08T21:24:57.828Z,19.80
2018-01-08T21:27:25.396Z,18.00
2018-01-08T21:29:52.925Z,15.80
2018-01-08T21:32:20.461Z,19.53
2018-01-08T21:34:48.785Z,20.50
2018-01-08T21:37:16.314Z,21.80
2018-01-08T21:39:44.638Z,21.20
2018-01-08T21:42:12.171Z,20.73
2018-01-08T21:44:39.728Z,17.97
2018-01-08T21:47:07.313Z,16.57
2018-01-08T21:49:34.870Z,21.30
2018-01-08T21:52:02.398Z,19.43
2018-01-08T21:54:29.966Z,18.30
2018-01-08T21:56:57.504Z,26.53
2018-01-08T21:59:25.834Z,22.33
2018-01-08T22:01:53.359Z,21.90
2018-01-08T22:04:20.917Z,18.63
2018-01-08T22:06:48.445Z,19.90
2018-01-08T22:09:16.006Z,18.67
2018-01-08T22:11:43.530Z,24.00
2018-01-08T22:14:11.082Z,22.97
2018-01-08T22:16:38.609Z,20.83
2018-01-08T22:19:06.194Z,21.17
2018-01-08T22:21:33.774Z,18.13
2018-01-08T22:24:01.336Z,24.53
2018-01-08T22:26:28.991Z,22.47
2018-01-08T22:28:56.574Z,21.67
2018-01-08T22:31:24.118Z,16.07
2018-01-08T22:33:51.642Z,22.50
2018-01-08T22:36:19.193Z,19.30
2018-01-08T22:38:46.901Z,19.47
2018-01-08T22:41:14.454Z,19.03
2018-01-08T22:43:41.974Z,18.23
2018-01-08T22:46:09.531Z,21.23
2018-01-08T22:48:37.818Z,18.77
2018-01-08T22:51:05.595Z,19.80
2018-01-08T22:53:33.121Z,21.03
2018-01-08T22:56:01.438Z,20.33
2018-01-08T22:58:29.201Z,16.83
2018-01-08T23:00:56.751Z,18.17
2018-01-08T23:03:24.274Z,19.80
2018-01-08T23:05:51.832Z,23.70
2018-01-08T23:08:19.522Z,18.47
2018-01-08T23:10:47.074Z,20.03
2018-01-08T23:13:15.375Z,23.83
2018-01-08T23:15:42.922Z,17.87
2018-01-08T23:18:10.482Z,21.60
2018-01-08T23:20:38.061Z,20.47
2018-01-08T23:23:05.619Z,20.43
2018-01-08T23:25:33.178Z,20.90
2018-01-08T23:28:13.711Z,20.00
2018-01-08T23:30:42.035Z,20.63
2018-01-08T23:33:09.674Z,22.63
2018-01-08T23:35:37.238Z,23.50
2018-01-08T23:38:04.767Z,22.03
2018-01-08T23:40:33.080Z,22.73
2018-01-08T23:43:00.630Z,20.73
2018-01-08T23:45:28.176Z,20.27
2018-01-08T23:47:55.731Z,20.60
2018-01-08T23:50:24.023Z,22.17
2018-01-08T23:52:51.648Z,21.30
2018-01-08T23:55:19.174Z,20.87
2018-01-08T23:57:46.723Z,21.83
